Time;durP1;ratioP1;P1;durP2;ratioP2;P2;SDS_P1;SDS_P2;PMS_P1;PMS_P2;Temp;Humidity;BMP_temperature;BMP_pressure;BME280_temperature;BME280_humidity;BME280_pressure;Samples;Min_cycle;Max_cycle;Signal;HPM_P1;HPM_P2
2022/12/09 00:02:19;;;;;;;22.77;9.75;;;;;;;28.88;58.66;100785.84;5063903;28;66142;-36
2022/12/09 00:04:50;;;;;;;26.77;9.50;;;;;;;28.95;59.12;100783.97;5089836;27;69982;-34
2022/12/09 00:07:21;;;;;;;42.00;11.17;;;;;;;28.95;60.08;100765.06;5082789;27;65386;-35
2022/12/09 00:09:53;;;;;;;21.98;10.50;;;;;;;29.12;60.25;100786.28;5083984;27;70016;-34
2022/12/09 00:12:24;;;;;;;23.57;9.37;;;;;;;29.14;61.67;100773.38;5096605;27;66336;-34
2022/12/09 00:14:55;;;;;;;14.33;10.77;;;;;;;29.28;61.93;100785.81;5083285;27;70010;-34
2022/12/09 00:17:26;;;;;;;25.23;10.37;;;;;;;29.36;60.97;100788.28;5086858;27;66051;-34
2022/12/09 00:19:58;;;;;;;33.22;11.35;;;;;;;29.20;62.52;100761.75;5095965;27;70114;-34
2022/12/09 00:22:29;;;;;;;62.50;12.70;;;;;;;29.26;62.54;100787.06;5078108;27;65108;-35
2022/12/09 00:25:01;;;;;;;27.52;13.05;;;;;;;29.25;62.65;100805.13;5065133;27;69916;-34
2022/12/09 00:27:32;;;;;;;19.97;11.23;;;;;;;29.21;61.98;100825.53;5096628;27;65706;-36
2022/12/09 00:30:04;;;;;;;31.90;11.47;;;;;;;29.04;62.55;100794.59;5082708;27;69955;-43
2022/12/09 00:32:36;;;;;;;31.83;12.18;;;;;;;29.17;63.03;100827.00;5071898;27;65195;-36
2022/12/09 00:35:08;;;;;;;26.23;10.45;;;;;;;29.12;62.80;100822.22;5092201;27;70484;-37
2022/12/09 00:37:39;;;;;;;24.83;9.43;;;;;;;29.16;63.35;100825.31;5084032;27;65382;-36
2022/12/09 00:40:11;;;;;;;18.58;10.32;;;;;;;29.06;63.56;100800.59;5096403;27;69572;-34
2022/12/09 00:42:45;;;;;;;22.08;10.38;;;;;;;28.71;63.43;100738.72;5086547;27;43107;-34
2022/12/09 00:45:16;;;;;;;21.38;10.30;;;;;;;29.24;62.59;100817.00;5085182;27;71061;-36
2022/12/09 00:47:47;;;;;;;11.27;8.55;;;;;;;29.31;60.13;100831.31;5085742;27;65810;-36
2022/12/09 00:50:19;;;;;;;13.00;8.30;;;;;;;29.44;60.22;100848.53;5080672;27;70966;-35
2022/12/09 00:52:50;;;;;;;9.02;8.15;;;;;;;29.39;59.92;100839.22;5081366;27;66146;-36
2022/12/09 00:55:22;;;;;;;11.68;7.85;;;;;;;29.40;59.35;100823.81;5084682;27;70058;-36
2022/12/09 00:57:54;;;;;;;9.38;7.55;;;;;;;29.58;59.19;100844.75;5084483;27;66113;-36
2022/12/09 01:00:25;;;;;;;9.77;7.63;;;;;;;29.62;59.15;100852.25;5089483;27;69970;-35
2022/12/09 01:02:56;;;;;;;13.97;7.40;;;;;;;29.62;58.50;100851.41;5080019;27;65138;-34
2022/12/09 01:05:28;;;;;;;7.93;7.18;;;;;;;29.63;58.28;100853.09;5074711;27;69194;-35
2022/12/09 01:08:00;;;;;;;8.48;7.63;;;;;;;29.73;58.35;100858.91;5080959;27;66239;-36
2022/12/09 01:10:33;;;;;;;9.67;7.27;;;;;;;29.35;57.91;100786.63;5078508;27;69033;-35
2022/12/09 01:13:05;;;;;;;7.90;7.13;;;;;;;29.78;58.09;100856.38;5082620;27;66267;-35
2022/12/09 01:15:37;;;;;;;7.47;6.77;;;;;;;29.81;58.25;100861.38;5086553;27;69816;-36
2022/12/09 01:18:11;;;;;;;7.68;6.97;;;;;;;29.80;57.95;100859.69;5079685;27;65803;-37
2022/12/09 01:20:42;;;;;;;6.75;6.22;;;;;;;29.88;57.87;100872.16;5090537;27;69914;-35
2022/12/09 01:23:14;;;;;;;8.20;6.88;;;;;;;29.89;57.95;100870.28;5088874;27;66829;-34
2022/12/09 01:25:46;;;;;;;8.50;7.47;;;;;;;29.91;58.01;100876.31;5078685;27;69995;-35
2022/12/09 01:28:17;;;;;;;8.50;7.03;;;;;;;29.85;57.55;100861.75;5081627;27;65954;-35
2022/12/09 01:30:49;;;;;;;7.45;6.80;;;;;;;29.92;57.27;100861.72;5081161;27;70252;-35
2022/12/09 01:33:21;;;;;;;8.52;6.85;;;;;;;29.92;57.93;100859.03;5081148;27;65946;-35
2022/12/09 01:35:52;;;;;;;7.57;6.88;;;;;;;29.95;57.34;100864.00;5089493;27;69254;-35
2022/12/09 01:38:24;;;;;;;9.05;6.05;;;;;;;29.95;57.75;100864.84;5082276;27;66222;-35
2022/12/09 01:40:55;;;;;;;7.80;6.13;;;;;;;30.00;57.42;100873.13;5089116;27;70147;-35
2022/12/09 01:43:26;;;;;;;;;;;;;;;29.71;59.15;100877.19;5085954;27;65805;-35
2022/12/09 01:46:00;;;;;;;8.55;6.95;;;;;;;30.03;57.87;100879.97;5083382;27;69863;-35
2022/12/09 01:48:45;;;;;;;7.10;6.60;;;;;;;29.75;57.74;100829.75;5084665;27;66594;-35
2022/12/09 01:51:19;;;;;;;7.00;6.40;;;;;;;29.97;57.59;100853.81;5085773;27;70264;-36
2022/12/09 01:53:51;;;;;;;6.70;6.10;;;;;;;30.08;56.96;100869.34;5091894;27;66348;-36
2022/12/09 01:56:30;;;;;;;6.68;6.07;;;;;;;30.15;57.58;100885.56;5071231;27;70831;-37
2022/12/09 01:59:08;;;;;;;6.25;5.65;;;;;;;29.58;57.31;100790.69;5092209;27;65566;-35
2022/12/09 02:01:41;;;;;;;7.20;6.60;;;;;;;29.81;57.52;100830.75;5081622;27;69900;-35
2022/12/09 02:04:13;;;;;;;6.45;5.88;;;;;;;29.99;57.20;100862.53;5086917;27;66412;-35
2022/12/09 02:06:44;;;;;;;7.10;6.50;;;;;;;30.15;57.53;100875.56;5087650;27;70067;-37
2022/12/09 02:09:19;;;;;;;6.88;6.20;;;;;;;30.03;57.33;100850.22;5092195;27;66804;-35
2022/12/09 02:12:25;;;;;;;7.30;6.63;;;;;;;30.08;57.76;100869.34;5085147;27;69574;-35
2022/12/09 02:15:14;;;;;;;7.05;6.20;;;;;;;30.19;57.16;100874.09;5084284;27;66691;-35
2022/12/09 02:17:59;;;;;;;8.25;6.13;;;;;;;29.34;57.27;100727.41;5082720;27;69752;-36
2022/12/09 02:20:53;;;;;;;6.00;5.60;;;;;;;29.61;57.21;100768.66;5092749;27;66777;-36
2022/12/09 02:23:32;;;;;;;6.20;5.70;;;;;;;30.31;57.30;100870.72;5105469;27;70760;-35
2022/12/09 02:26:31;;;;;;;5.90;5.50;;;;;;;30.24;57.42;100873.47;5090286;27;66849;-35
2022/12/09 02:29:18;;;;;;;6.47;5.97;;;;;;;30.34;56.89;100878.41;5078917;27;69253;-36
2022/12/09 02:32:14;;;;;;;6.68;6.07;;;;;;;30.28;57.03;100880.09;5090403;27;66743;-35
2022/12/09 02:35:04;;;;;;;6.43;5.93;;;;;;;30.37;57.03;100875.25;5092283;27;70189;-36
2022/12/09 02:37:53;;;;;;;9.70;6.38;;;;;;;30.31;56.86;100876.13;5081172;27;66274;-35
2022/12/09 02:40:54;;;;;;;6.57;5.55;;;;;;;29.98;56.87;100806.81;5087803;27;70135;-36
2022/12/09 02:43:33;;;;;;;6.20;5.70;;;;;;;30.46;56.72;100884.81;5060764;27;66233;-36
2022/12/09 02:46:09;;;;;;;6.97;6.22;;;;;;;30.20;56.75;100837.88;5089818;27;69531;-36
2022/12/09 02:48:49;;;;;;;6.57;6.00;;;;;;;30.39;56.65;100856.94;5085332;27;66723;-40
2022/12/09 02:51:23;;;;;;;6.15;5.57;;;;;;;30.50;56.65;100880.59;5095086;27;70285;-35
2022/12/09 02:54:04;;;;;;;6.50;6.00;;;;;;;30.04;56.46;100793.22;5092832;27;66361;-34
2022/12/09 02:56:38;;;;;;;6.88;6.25;;;;;;;30.42;56.52;100857.34;5071369;27;69607;-36
2022/12/09 02:59:09;;;;;;;6.35;5.75;;;;;;;30.56;56.94;100874.31;5082263;27;65721;-35
2022/12/09 03:01:50;;;;;;;6.37;5.77;;;;;;;30.14;56.76;100797.31;5080064;27;69844;-37
2022/12/09 03:04:26;;;;;;;6.50;6.00;;;;;;;30.53;56.33;100855.81;5092511;27;66459;-35
2022/12/09 03:07:22;;;;;;;6.00;5.50;;;;;;;30.62;56.66;100865.34;5082658;27;70293;-36
2022/12/09 03:10:04;;;;;;;6.50;5.88;;;;;;;30.62;56.49;100868.06;5054848;27;66738;-35
2022/12/09 03:12:38;;;;;;;6.78;5.97;;;;;;;30.12;56.21;100781.31;5086404;27;70342;-35
2022/12/09 03:15:14;;;;;;;5.85;5.32;;;;;;;30.67;56.43;100865.53;5084448;27;65374;-36
2022/12/09 03:17:46;;;;;;;6.10;5.60;;;;;;;30.69;56.63;100859.88;5080830;27;70054;-36
2022/12/09 03:20:28;;;;;;;6.80;6.20;;;;;;;30.70;56.69;100865.06;5091190;27;66449;-36
2022/12/09 03:23:04;;;;;;;6.63;6.07;;;;;;;30.63;56.73;100845.31;5082932;27;69519;-36
2022/12/09 03:25:43;;;;;;;7.43;6.43;;;;;;;30.74;56.75;100854.63;5086935;27;66620;-36
2022/12/09 03:28:40;;;;;;;6.22;5.65;;;;;;;30.73;56.38;100856.50;5084582;27;69455;-35
2022/12/09 03:31:17;;;;;;;6.05;5.55;;;;;;;30.78;56.29;100850.41;5081974;27;66814;-35
2022/12/09 03:33:53;;;;;;;6.65;6.05;;;;;;;30.31;56.17;100771.44;5064937;28;70134;-35
2022/12/09 03:36:29;;;;;;;6.60;6.10;;;;;;;30.85;56.54;100851.22;5079827;27;65529;-36
2022/12/09 03:39:01;;;;;;;6.95;6.13;;;;;;;30.85;55.93;100847.69;5081860;27;69590;-36
2022/12/09 03:41:33;;;;;;;7.03;6.38;;;;;;;30.42;56.31;100756.38;5090976;27;65875;-35
2022/12/09 03:44:31;;;;;;;5.57;5.18;;;;;;;30.79;56.08;100806.06;5090420;27;69726;-36
2022/12/09 03:47:08;;;;;;;6.88;5.95;;;;;;;30.91;56.31;100822.44;5089620;27;66844;-35
2022/12/09 03:49:40;;;;;;;6.30;5.68;;;;;;;30.94;56.26;100822.00;5088163;27;70425;-35
2022/12/09 03:52:26;;;;;;;6.63;5.90;;;;;;;30.90;55.98;100816.19;5090659;27;66916;-37
2022/12/09 03:55:27;;;;;;;10.00;6.10;;;;;;;30.50;56.33;100750.69;5092500;27;70391;-35
2022/12/09 03:58:02;;;;;;;6.68;6.13;;;;;;;30.62;56.14;100758.91;5090025;27;65931;-37
2022/12/09 04:00:38;;;;;;;5.82;5.43;;;;;;;31.02;55.76;100810.88;5083346;27;69723;-35
2022/12/09 04:03:12;;;;;;;6.47;5.88;;;;;;;30.92;56.00;100794.28;5081939;27;65726;-36
2022/12/09 04:05:43;;;;;;;6.32;5.82;;;;;;;30.98;55.87;100785.28;5082408;27;69373;-35
2022/12/09 04:08:14;;;;;;;6.60;6.00;;;;;;;31.06;56.28;100798.53;5082494;27;66089;-35
2022/12/09 04:10:46;;;;;;;6.15;5.55;;;;;;;31.08;55.75;100796.44;5085349;27;69808;-36
2022/12/09 04:13:18;;;;;;;6.22;5.60;;;;;;;31.10;55.86;100788.91;5085421;27;65522;-35
2022/12/09 04:15:49;;;;;;;5.97;5.47;;;;;;;31.09;55.86;100786.41;5086310;27;69484;-35
2022/12/09 04:18:21;;;;;;;6.25;5.72;;;;;;;31.13;55.82;100793.88;5085944;27;65467;-36
2022/12/09 04:20:53;;;;;;;6.30;5.72;;;;;;;31.13;55.86;100780.34;5080855;27;70308;-37
2022/12/09 04:23:24;;;;;;;6.63;5.97;;;;;;;31.01;55.64;100757.75;5083835;27;66197;-35
2022/12/09 04:25:55;;;;;;;6.25;5.75;;;;;;;31.13;55.65;100769.50;5082625;27;69920;-35
2022/12/09 04:28:27;;;;;;;6.60;5.90;;;;;;;31.21;56.04;100784.63;5090159;27;66746;-36
2022/12/09 04:31:00;;;;;;;6.57;5.97;;;;;;;31.24;55.75;100775.22;5086772;27;70075;-36
2022/12/09 04:33:31;;;;;;;8.38;6.50;;;;;;;31.11;55.73;100754.50;5083886;27;66801;-36
2022/12/09 04:36:07;;;;;;;6.47;5.88;;;;;;;31.28;55.51;100779.13;5069823;27;69478;-37
2022/12/09 04:38:40;;;;;;;5.93;5.50;;;;;;;31.28;56.02;100779.13;5065150;27;66357;-36
2022/12/09 04:41:13;;;;;;;8.02;6.20;;;;;;;31.30;55.76;100774.31;5083688;27;69567;-35
2022/12/09 04:43:45;;;;;;;6.88;5.63;;;;;;;31.30;55.83;100771.59;5080438;27;66254;-36
2022/12/09 04:46:17;;;;;;;6.57;5.93;;;;;;;31.30;55.69;100761.59;5083534;27;70097;-35
2022/12/09 04:48:50;;;;;;;6.38;5.88;;;;;;;31.31;55.96;100765.94;5080966;27;66334;-35
2022/12/09 04:51:21;;;;;;;8.00;6.28;;;;;;;31.31;55.82;100757.00;5083997;27;69220;-35
2022/12/09 04:53:53;;;;;;;6.03;5.53;;;;;;;31.30;55.79;100750.75;5082787;27;66110;-36
2022/12/09 04:56:24;;;;;;;6.47;6.07;;;;;;;31.29;55.52;100748.28;5080344;27;69278;-36
2022/12/09 04:58:56;;;;;;;8.07;6.20;;;;;;;31.33;55.44;100738.63;5092575;27;66186;-35
2022/12/09 05:01:28;;;;;;;7.80;5.68;;;;;;;31.36;55.76;100743.63;5080684;27;69609;-36
2022/12/09 05:04:00;;;;;;;6.00;5.53;;;;;;;31.37;55.87;100734.44;5080239;27;66460;-37
2022/12/09 05:06:33;;;;;;;7.40;6.70;;;;;;;31.40;55.89;100734.00;5080549;27;70333;-36
2022/12/09 05:09:05;;;;;;;6.88;6.28;;;;;;;31.36;55.87;100727.38;5090186;27;66434;-35
2022/12/09 05:11:36;;;;;;;6.53;5.95;;;;;;;31.34;55.81;100719.44;5079904;27;69927;-36
2022/12/09 05:14:07;;;;;;;6.43;5.77;;;;;;;31.41;55.57;100730.22;5088090;27;65533;-35
2022/12/09 05:16:39;;;;;;;6.53;6.00;;;;;;;31.42;55.55;100720.22;5079113;27;69963;-35
2022/12/09 05:19:10;;;;;;;;;;;;;;;31.12;56.70;100710.09;5091707;27;66767;-35
2022/12/09 05:21:43;;;;;;;6.53;5.97;;;;;;;31.41;56.18;100708.53;5068624;27;70330;-36
2022/12/09 05:24:16;;;;;;;8.80;6.47;;;;;;;31.37;55.56;100691.06;5086947;27;65744;-35
2022/12/09 05:26:47;;;;;;;7.38;6.30;;;;;;;31.47;55.79;100696.78;5081732;27;69752;-35
2022/12/09 05:29:19;;;;;;;7.15;5.93;;;;;;;31.51;55.93;100692.56;5079089;27;65930;-35
2022/12/09 05:31:53;;;;;;;6.10;5.60;;;;;;;31.54;55.51;100697.53;5082430;27;69851;-35
2022/12/09 05:34:24;;;;;;;6.03;5.53;;;;;;;31.54;55.86;100685.88;5093374;27;66434;-36
2022/12/09 05:36:56;;;;;;;5.97;5.47;;;;;;;31.56;55.36;100683.72;5080108;27;69518;-36
2022/12/09 05:39:28;;;;;;;6.03;5.63;;;;;;;31.53;55.59;100668.75;5082625;27;65519;-36
2022/12/09 05:41:59;;;;;;;6.88;6.28;;;;;;;31.51;56.29;100676.31;5081648;27;69696;-36
2022/12/09 05:44:31;;;;;;;6.03;5.45;;;;;;;31.50;55.52;100658.38;5089784;27;67547;-35
2022/12/09 05:47:03;;;;;;;6.38;5.85;;;;;;;31.43;55.48;100635.97;5086384;27;69625;-36
2022/12/09 05:49:34;;;;;;;6.05;5.47;;;;;;;31.63;55.82;100656.53;5083018;27;66591;-37
2022/12/09 05:52:06;;;;;;;;;;;;;;;31.34;56.28;100669.81;5091787;27;69633;-36
2022/12/09 05:54:37;;;;;;;5.63;5.20;;;;;;;31.64;55.67;100647.34;5081430;27;66718;-35
2022/12/09 05:57:09;;;;;;;5.97;5.57;;;;;;;31.64;55.34;100644.63;5085707;27;69555;-35
2022/12/09 05:59:40;;;;;;;6.10;5.57;;;;;;;31.66;55.24;100643.34;5080595;27;65279;-35
2022/12/09 06:02:13;;;;;;;6.38;5.70;;;;;;;31.72;55.32;100638.88;5079442;27;70695;-36
2022/12/09 06:04:45;;;;;;;6.60;6.10;;;;;;;31.32;55.50;100579.78;5080150;27;66282;-35
2022/12/09 06:07:16;;;;;;;7.40;5.60;;;;;;;31.73;55.45;100635.09;5079733;27;69885;-35
2022/12/09 06:09:48;;;;;;;7.68;5.65;;;;;;;31.73;55.63;100625.09;5093669;27;65653;-35
2022/12/09 06:12:20;;;;;;;6.40;5.82;;;;;;;31.77;55.43;100625.44;5092419;27;69196;-34
2022/12/09 06:14:52;;;;;;;7.90;6.20;;;;;;;31.69;55.59;100596.78;5087865;27;66103;-35
2022/12/09 06:17:24;;;;;;;6.40;5.90;;;;;;;31.64;55.57;100587.69;5085522;27;69670;-37
2022/12/09 06:19:55;;;;;;;8.45;5.60;;;;;;;31.57;55.26;100572.34;5083847;27;65347;-36
2022/12/09 06:22:27;;;;;;;6.10;5.50;;;;;;;31.82;55.35;100603.88;5087464;27;69970;-35
2022/12/09 06:24:58;;;;;;;7.57;6.03;;;;;;;31.82;55.33;100599.28;5090906;27;66433;-36
2022/12/09 06:27:30;;;;;;;6.20;5.57;;;;;;;31.83;55.35;100602.81;5089469;27;69455;-36
2022/12/09 06:30:02;;;;;;;6.50;5.90;;;;;;;31.86;55.07;100591.50;5072651;27;65938;-35
2022/12/09 06:32:33;;;;;;;5.93;5.43;;;;;;;31.75;55.40;100563.28;5078689;27;69834;-36
2022/12/09 06:35:06;;;;;;;7.03;5.55;;;;;;;31.86;55.18;100572.50;5083622;27;66636;-36
2022/12/09 06:37:38;;;;;;;6.38;5.97;;;;;;;31.84;55.07;100569.19;5081627;27;69439;-35
2022/12/09 06:40:10;;;;;;;6.82;6.18;;;;;;;31.88;55.17;100573.09;5083813;27;65488;-35
2022/12/09 06:42:41;;;;;;;6.38;5.68;;;;;;;31.89;55.26;100561.19;5085532;27;70082;-37
2022/12/09 06:45:13;;;;;;;6.15;5.65;;;;;;;31.87;55.41;100557.06;5087175;27;66384;-35
2022/12/09 06:47:46;;;;;;;6.30;5.90;;;;;;;31.91;54.80;100559.09;5080739;27;70075;-35
2022/12/09 06:50:18;;;;;;;9.40;6.10;;;;;;;31.43;55.32;100483.34;5086527;27;65667;-36
2022/12/09 06:52:49;;;;;;;9.25;6.20;;;;;;;31.91;55.23;100564.53;5086128;27;69422;-35
2022/12/09 06:55:21;;;;;;;12.50;6.00;;;;;;;31.60;55.16;100516.84;5087176;27;65508;-35
2022/12/09 06:57:52;;;;;;;8.55;5.65;;;;;;;31.92;55.60;100559.91;5086371;27;69889;-35
2022/12/09 07:00:23;;;;;;;7.38;5.82;;;;;;;31.91;55.38;100553.69;5088209;27;65973;-35
2022/12/09 07:02:55;;;;;;;6.97;6.18;;;;;;;31.92;55.50;100552.59;5095497;27;70802;-36
2022/12/09 07:05:27;;;;;;;6.10;5.70;;;;;;;31.94;55.28;100549.66;5087148;27;66353;-35
2022/12/09 07:08:00;;;;;;;7.10;5.50;;;;;;;31.91;55.34;100534.69;5084038;27;70468;-37
2022/12/09 07:10:32;;;;;;;6.85;6.25;;;;;;;31.92;55.24;100530.91;5092671;27;66059;-35
2022/12/09 07:13:03;;;;;;;;;;;;;;;31.65;55.97;100530.53;5097230;27;69311;-36
2022/12/09 07:15:34;;;;;;;7.20;6.05;;;;;;;31.78;55.20;100502.34;5083452;27;66701;-36
2022/12/09 07:18:07;;;;;;;5.82;5.38;;;;;;;31.93;55.35;100540.72;5093490;27;69919;-35
2022/12/09 07:20:38;;;;;;;7.00;6.43;;;;;;;31.63;55.11;100478.41;5084126;27;66452;-35
2022/12/09 07:23:11;;;;;;;6.72;6.15;;;;;;;31.87;55.27;100514.47;5087282;27;70011;-36
2022/12/09 07:25:43;;;;;;;7.38;6.30;;;;;;;31.94;55.27;100528.78;5087423;27;65780;-37
2022/12/09 07:28:14;;;;;;;7.75;6.90;;;;;;;31.95;55.32;100527.72;5082950;27;69022;-35
2022/12/09 07:30:45;;;;;;;7.68;6.07;;;;;;;31.97;55.26;100525.59;5085584;27;66045;-37
2022/12/09 07:33:17;;;;;;;7.72;6.40;;;;;;;32.01;55.35;100524.09;5087154;27;69859;-37
2022/12/09 07:35:49;;;;;;;6.95;6.30;;;;;;;31.48;55.13;100435.50;5082012;27;66701;-36
2022/12/09 07:38:20;;;;;;;6.85;6.35;;;;;;;32.01;55.51;100505.09;5088031;27;69449;-35
2022/12/09 07:40:52;;;;;;;;;;;;;;;31.72;56.04;100508.72;5093819;27;66706;-35
2022/12/09 07:43:24;;;;;;;6.80;6.03;;;;;;;31.87;55.55;100484.63;5083869;27;70164;-36
2022/12/09 07:45:55;;;;;;;;;;;;;;;31.72;56.02;100503.28;5089426;27;66187;-36
2022/12/09 07:48:26;;;;;;;7.13;6.50;;;;;;;32.01;55.33;100502.38;5092554;27;68516;-36
2022/12/09 07:51:05;;;;;;;11.15;7.30;;;;;;;32.00;55.45;100498.00;5088669;27;66983;-38
2022/12/09 07:53:37;;;;;;;8.05;7.20;;;;;;;32.04;55.29;100501.91;5081601;27;70187;-35
2022/12/09 07:56:13;;;;;;;13.38;7.22;;;;;;;32.04;55.51;100504.63;5089017;27;66886;-35
2022/12/09 07:58:46;;;;;;;7.72;7.13;;;;;;;31.97;55.54;100489.50;5083147;27;70980;-37
2022/12/09 08:01:21;;;;;;;7.50;6.88;;;;;;;32.04;55.34;100495.66;5084318;27;66092;-36
2022/12/09 08:03:53;;;;;;;7.60;6.97;;;;;;;31.95;55.64;100486.19;5085605;27;70797;-36
2022/12/09 08:06:28;;;;;;;8.57;7.65;;;;;;;32.05;55.45;100498.13;5087890;27;66590;-35
2022/12/09 08:09:02;;;;;;;8.05;7.00;;;;;;;32.08;55.74;100496.00;5093204;27;69506;-35
2022/12/09 08:11:34;;;;;;;8.55;7.43;;;;;;;32.09;55.36;100503.06;5089117;27;66917;-36
2022/12/09 08:14:09;;;;;;;8.88;7.88;;;;;;;31.68;55.55;100445.16;5082847;27;69696;-35
2022/12/09 08:16:42;;;;;;;8.45;7.60;;;;;;;32.08;55.49;100515.00;5085630;27;65951;-36
2022/12/09 08:19:14;;;;;;;10.07;8.00;;;;;;;32.02;55.69;100504.03;5086682;27;69858;-36
2022/12/09 08:21:46;;;;;;;10.35;7.63;;;;;;;31.99;55.64;100487.41;5090591;27;65826;-35
2022/12/09 08:24:23;;;;;;;20.70;8.18;;;;;;;32.07;55.87;100502.47;5092778;27;70012;-35
2022/12/09 08:26:54;;;;;;;9.63;8.75;;;;;;;31.98;55.82;100486.56;5081179;27;64605;-36
2022/12/09 08:29:26;;;;;;;10.70;8.15;;;;;;;32.05;55.73;100494.59;5089035;27;70294;-36
2022/12/09 08:31:58;;;;;;;9.23;8.30;;;;;;;32.07;55.75;100497.88;5092091;27;65796;-36
2022/12/09 08:34:30;;;;;;;11.85;8.13;;;;;;;32.07;55.65;100497.88;5087002;27;69908;-35
2022/12/09 08:37:01;;;;;;;9.05;8.15;;;;;;;32.04;55.83;100491.06;5082183;27;66186;-35
2022/12/09 08:39:33;;;;;;;9.70;8.70;;;;;;;31.97;55.73;100479.47;5082098;27;70148;-36
2022/12/09 08:42:05;;;;;;;10.85;8.68;;;;;;;32.03;55.79;100483.94;5084287;27;65761;-35
2022/12/09 08:44:36;;;;;;;;;;;;;;;31.77;56.97;100489.84;5091653;27;69434;-37
2022/12/09 08:47:08;;;;;;;9.13;8.27;;;;;;;32.05;56.11;100481.84;5085719;27;65103;-36
2022/12/09 08:49:39;;;;;;;10.30;9.05;;;;;;;31.95;56.10;100465.31;5084388;27;69471;-35
2022/12/09 08:52:11;;;;;;;9.60;8.43;;;;;;;32.09;55.66;100474.03;5087653;27;65871;-37
2022/12/09 08:54:42;;;;;;;9.37;8.63;;;;;;;32.08;56.02;100475.09;5059936;28;69735;-35
2022/12/09 08:57:14;;;;;;;9.70;8.80;;;;;;;32.08;56.01;100471.56;5085565;27;65585;-35
2022/12/09 08:59:46;;;;;;;10.38;9.00;;;;;;;32.10;56.01;100477.59;5085215;27;70794;-35
2022/12/09 09:02:17;;;;;;;10.27;8.35;;;;;;;32.08;56.24;100490.56;5079717;27;66231;-36
2022/12/09 09:04:49;;;;;;;12.35;9.45;;;;;;;31.88;55.76;100453.75;5090803;27;69689;-37
2022/12/09 09:07:20;;;;;;;;;;;;;;;31.78;56.88;100494.19;5084431;27;65815;-34
2022/12/09 09:09:52;;;;;;;10.27;9.05;;;;;;;32.09;56.22;100500.34;5081036;27;70238;-35
2022/12/09 09:12:24;;;;;;;9.73;8.77;;;;;;;32.11;56.02;100492.81;5089530;27;65384;-36
2022/12/09 09:14:55;;;;;;;10.20;9.30;;;;;;;31.89;56.20;100460.81;5079906;27;69915;-36
2022/12/09 09:17:27;;;;;;;9.77;8.90;;;;;;;32.11;56.32;100481.94;5081759;27;66494;-35
2022/12/09 09:19:59;;;;;;;10.85;9.52;;;;;;;32.07;57.23;100478.03;5064761;27;69362;-35
2022/12/09 09:22:31;;;;;;;21.55;11.50;;;;;;;31.98;59.22;100481.16;5083302;27;66745;-35
2022/12/09 09:25:03;;;;;;;16.58;12.18;;;;;;;31.78;60.00;100458.94;5084046;27;70180;-36
2022/12/09 09:27:36;;;;;;;17.63;11.80;;;;;;;31.84;60.80;100485.13;5082966;27;66788;-37
2022/12/09 09:30:08;;;;;;;22.00;11.70;;;;;;;31.68;61.25;100475.81;5083654;27;70081;-36
2022/12/09 09:32:40;;;;;;;14.82;10.95;;;;;;;31.74;61.66;100491.13;5085521;27;66374;-35
2022/12/09 09:35:11;;;;;;;24.15;11.93;;;;;;;31.68;61.73;100480.41;5085204;27;69846;-35
2022/12/09 09:37:43;;;;;;;;;;;;;;;31.50;62.73;100489.47;5081547;27;65061;-34
2022/12/09 09:40:14;;;;;;;13.45;11.75;;;;;;;31.68;62.30;100491.25;5082765;27;69791;-35
2022/12/09 09:42:50;;;;;;;14.43;11.48;;;;;;;31.71;62.64;100512.50;5086703;27;65786;-34
2022/12/09 09:45:23;;;;;;;13.23;11.80;;;;;;;31.55;62.72;100485.00;5082321;27;70410;-35
2022/12/09 09:48:02;;;;;;;15.65;11.55;;;;;;;31.60;62.88;100495.16;5080107;27;66679;-35
2022/12/09 09:50:55;;;;;;;17.75;12.70;;;;;;;31.14;63.15;100420.81;5079276;27;69406;-37
2022/12/09 09:53:30;;;;;;;16.65;11.23;;;;;;;31.65;62.96;100507.97;5080278;27;66606;-36
2022/12/09 09:56:27;;;;;;;15.18;11.48;;;;;;;31.53;63.18;100489.81;5077953;27;69546;-36
2022/12/09 09:59:19;;;;;;;22.98;13.18;;;;;;;31.52;63.72;100515.28;5073880;27;64502;-35
2022/12/09 10:02:15;;;;;;;18.73;12.20;;;;;;;31.51;63.45;100501.94;5081470;27;69705;-37
2022/12/09 10:05:21;;;;;;;22.45;12.57;;;;;;;31.58;64.14;100516.25;5087799;27;65691;-36
2022/12/09 10:08:17;;;;;;;15.27;12.73;;;;;;;31.61;64.35;100518.47;5084006;27;70264;-35
2022/12/09 10:10:55;;;;;;;16.30;12.38;;;;;;;31.61;64.53;100521.19;5087361;27;66624;-37
2022/12/09 10:14:00;;;;;;;20.73;12.35;;;;;;;31.52;64.84;100526.13;5089408;27;70122;-37
2022/12/09 10:16:32;;;;;;;19.50;13.90;;;;;;;31.58;64.82;100529.78;5086743;27;65868;-35
2022/12/09 10:19:17;;;;;;;19.75;13.05;;;;;;;31.41;64.44;100499.84;5087680;27;70500;-36
2022/12/09 10:21:53;;;;;;;18.48;13.95;;;;;;;30.97;64.92;100428.78;5087936;27;66867;-38
2022/12/09 10:24:33;;;;;;;21.77;14.68;;;;;;;31.58;65.47;100525.19;5086856;27;69506;-37
2022/12/09 10:27:16;;;;;;;30.77;14.93;;;;;;;31.47;65.89;100512.44;5076528;27;66202;-36
2022/12/09 10:29:56;;;;;;;28.58;14.70;;;;;;;31.57;66.17;100530.88;5085827;27;70256;-36
2022/12/09 10:32:32;;;;;;;30.70;14.07;;;;;;;31.30;66.33;100495.19;5087329;27;66300;-36
2022/12/09 10:35:26;;;;;;;23.92;13.77;;;;;;;31.54;67.08;100551.13;5085935;27;69589;-38
2022/12/09 10:38:10;;;;;;;22.60;13.07;;;;;;;31.59;67.05;100555.84;5085404;27;65553;-37
2022/12/09 10:40:58;;;;;;;19.77;12.13;;;;;;;31.38;68.14;100524.69;5084846;27;70196;-42
2022/12/09 10:43:42;;;;;;;18.08;11.85;;;;;;;31.54;67.62;100551.13;5090035;27;67067;-37
2022/12/09 10:46:22;;;;;;;18.80;10.65;;;;;;;31.65;67.86;100564.91;5089701;27;69797;-36
2022/12/09 10:49:00;;;;;;;21.42;10.70;;;;;;;31.16;68.47;100500.78;5086906;27;66377;-35
2022/12/09 10:51:35;;;;;;;22.25;10.80;;;;;;;31.11;69.16;100480.88;5090398;27;69388;-36
2022/12/09 10:54:30;;;;;;;17.58;10.45;;;;;;;31.44;68.80;100545.44;5088090;27;66445;-39
2022/12/09 10:57:01;;;;;;;13.38;9.75;;;;;;;31.62;69.11;100571.63;5087615;27;69830;-46
2022/12/09 10:59:34;;;;;;;17.83;9.90;;;;;;;31.13;69.54;100501.25;5088425;27;66248;-44
2022/12/09 11:02:08;;;;;;;13.88;9.60;;;;;;;31.61;69.84;100580.84;5090276;27;70518;-35
2022/12/09 11:04:43;;;;;;;15.95;10.63;;;;;;;31.09;69.95;100505.50;5087728;27;66577;-34
2022/12/09 11:07:20;;;;;;;26.17;9.55;;;;;;;31.06;70.23;100497.00;5081694;27;70141;-37
2022/12/09 11:09:59;;;;;;;26.48;9.45;;;;;;;31.63;70.52;100599.59;5080670;27;66381;-41
2022/12/09 11:12:37;;;;;;;14.25;8.43;;;;;;;31.56;69.96;100603.22;5086503;27;69776;-34
2022/12/09 11:15:34;;;;;;;30.65;17.48;;;;;;;31.13;69.88;100539.19;5086662;27;65730;-36
2022/12/09 11:18:16;;;;;;;53.70;35.75;;;;;;;31.55;70.51;100606.19;5082208;27;69490;-36
2022/12/09 11:21:00;;;;;;;86.93;43.25;;;;;;;31.58;70.42;100614.66;5088179;27;66305;-36
2022/12/09 11:23:32;;;;;;;52.53;33.83;;;;;;;31.66;69.03;100615.41;5083341;27;70355;-36
2022/12/09 11:26:22;;;;;;;37.63;25.33;;;;;;;31.68;69.85;100621.41;5085673;27;65352;-38
2022/12/09 11:29:21;;;;;;;34.75;20.02;;;;;;;31.59;69.73;100597.34;5087833;27;70785;-37
2022/12/09 11:31:52;;;;;;;35.35;19.60;;;;;;;31.83;68.69;100627.22;5090063;27;65501;-36
2022/12/09 11:34:26;;;;;;;28.33;18.77;;;;;;;31.64;68.70;100587.69;5088370;27;69845;-37
2022/12/09 11:37:01;;;;;;;22.58;16.65;;;;;;;31.89;68.82;100631.72;5086682;27;66711;-36
2022/12/09 11:39:34;;;;;;;21.65;15.35;;;;;;;31.42;68.71;100557.56;5085666;27;70055;-35
2022/12/09 11:42:21;;;;;;;22.05;14.60;;;;;;;31.88;69.40;100631.97;5103640;27;65092;-37
2022/12/09 11:45:06;;;;;;;21.00;13.10;;;;;;;31.91;69.46;100635.06;5081666;27;69731;-36
2022/12/09 11:47:41;;;;;;;20.00;12.45;;;;;;;31.49;68.57;100572.69;5084351;27;66247;-37
2022/12/09 11:50:35;;;;;;;16.83;11.40;;;;;;;31.99;68.93;100666.44;5083822;27;70431;-36
2022/12/09 11:53:10;;;;;;;18.42;11.40;;;;;;;31.68;68.56;100615.97;5087421;27;66851;-35
2022/12/09 11:55:53;;;;;;;15.30;9.82;;;;;;;31.97;69.33;100674.81;5084070;27;70503;-35
2022/12/09 11:58:49;;;;;;;16.95;10.38;;;;;;;31.89;69.67;100672.41;5087472;27;65742;-35
2022/12/09 12:01:42;;;;;;;18.77;8.73;;;;;;;31.75;70.24;100671.78;5081640;27;69979;-35